sensor_id;sensor_type;location;lat;lon;timestamp;P1;durP1;ratioP1;P2;durP2;ratioP2
73100;SDS011;61288;53.446;-2.266;2023-08-06T00:00:26;11.18;;;3.20;;
73100;SDS011;61288;53.446;-2.266;2023-08-06T00:02:51;8.15;;;2.63;;
73100;SDS011;61288;53.446;-2.266;2023-08-06T00:05:17;10.13;;;2.85;;
73100;SDS011;61288;53.446;-2.266;2023-08-06T00:07:49;8.98;;;2.45;;
73100;SDS011;61288;53.446;-2.266;2023-08-06T00:10:15;8.30;;;2.50;;
73100;SDS011;61288;53.446;-2.266;2023-08-06T00:12:41;8.70;;;2.45;;
73100;SDS011;61288;53.446;-2.266;2023-08-06T00:15:07;8.90;;;2.58;;
73100;SDS011;61288;53.446;-2.266;2023-08-06T00:17:33;10.35;;;2.70;;
73100;SDS011;61288;53.446;-2.266;2023-08-06T00:19:59;9.25;;;2.67;;
73100;SDS011;61288;53.446;-2.266;2023-08-06T00:22:37;8.90;;;2.75;;
73100;SDS011;61288;53.446;-2.266;2023-08-06T00:25:03;8.73;;;2.70;;
73100;SDS011;61288;53.446;-2.266;2023-08-06T00:27:30;7.38;;;2.42;;
73100;SDS011;61288;53.446;-2.266;2023-08-06T00:29:55;9.55;;;2.58;;
73100;SDS011;61288;53.446;-2.266;2023-08-06T00:32:21;9.80;;;2.72;;
73100;SDS011;61288;53.446;-2.266;2023-08-06T00:34:47;10.38;;;2.80;;
73100;SDS011;61288;53.446;-2.266;2023-08-06T00:37:14;10.15;;;3.03;;
73100;SDS011;61288;53.446;-2.266;2023-08-06T00:39:43;8.27;;;2.70;;
73100;SDS011;61288;53.446;-2.266;2023-08-06T00:42:10;9.07;;;2.70;;
73100;SDS011;61288;53.446;-2.266;2023-08-06T00:44:37;11.77;;;3.05;;
73100;SDS011;61288;53.446;-2.266;2023-08-06T00:47:03;9.88;;;3.13;;
73100;SDS011;61288;53.446;-2.266;2023-08-06T00:49:29;9.45;;;2.65;;
73100;SDS011;61288;53.446;-2.266;2023-08-06T00:51:55;8.27;;;2.78;;
73100;SDS011;61288;53.446;-2.266;2023-08-06T00:54:22;10.02;;;2.95;;
73100;SDS011;61288;53.446;-2.266;2023-08-06T00:56:49;9.98;;;2.58;;
73100;SDS011;61288;53.446;-2.266;2023-08-06T00:59:14;12.55;;;3.50;;
73100;SDS011;61288;53.446;-2.266;2023-08-06T01:01:40;9.73;;;3.03;;
73100;SDS011;61288;53.446;-2.266;2023-08-06T01:04:08;12.40;;;3.50;;
73100;SDS011;61288;53.446;-2.266;2023-08-06T01:09:26;12.20;;;3.50;;
73100;SDS011;61288;53.446;-2.266;2023-08-06T01:17:25;11.00;;;3.22;;
73100;SDS011;61288;53.446;-2.266;2023-08-06T01:19:52;14.20;;;3.67;;
73100;SDS011;61288;53.446;-2.266;2023-08-06T01:22:18;10.88;;;3.50;;
73100;SDS011;61288;53.446;-2.266;2023-08-06T01:24:45;12.43;;;3.55;;
73100;SDS011;61288;53.446;-2.266;2023-08-06T01:30:01;11.25;;;3.58;;
73100;SDS011;61288;53.446;-2.266;2023-08-06T01:32:49;11.18;;;3.47;;
73100;SDS011;61288;53.446;-2.266;2023-08-06T01:35:22;13.55;;;4.38;;
73100;SDS011;61288;53.446;-2.266;2023-08-06T01:37:48;11.88;;;3.80;;
73100;SDS011;61288;53.446;-2.266;2023-08-06T01:40:14;12.20;;;3.72;;
73100;SDS011;61288;53.446;-2.266;2023-08-06T01:42:40;13.57;;;3.75;;
73100;SDS011;61288;53.446;-2.266;2023-08-06T01:45:06;14.20;;;3.80;;
73100;SDS011;61288;53.446;-2.266;2023-08-06T01:47:33;11.00;;;3.80;;
73100;SDS011;61288;53.446;-2.266;2023-08-06T01:49:58;11.75;;;3.55;;
73100;SDS011;61288;53.446;-2.266;2023-08-06T01:52:25;11.25;;;3.72;;
73100;SDS011;61288;53.446;-2.266;2023-08-06T01:54:52;9.70;;;3.35;;
73100;SDS011;61288;53.446;-2.266;2023-08-06T01:57:18;11.25;;;3.38;;
73100;SDS011;61288;53.446;-2.266;2023-08-06T01:59:43;10.68;;;3.60;;
73100;SDS011;61288;53.446;-2.266;2023-08-06T02:02:09;10.23;;;3.63;;
73100;SDS011;61288;53.446;-2.266;2023-08-06T02:04:34;11.68;;;3.78;;
73100;SDS011;61288;53.446;-2.266;2023-08-06T02:07:00;11.15;;;3.40;;
73100;SDS011;61288;53.446;-2.266;2023-08-06T02:09:25;10.90;;;3.63;;
73100;SDS011;61288;53.446;-2.266;2023-08-06T02:11:51;13.15;;;3.97;;
73100;SDS011;61288;53.446;-2.266;2023-08-06T02:14:16;12.73;;;4.35;;
73100;SDS011;61288;53.446;-2.266;2023-08-06T02:16:42;12.38;;;4.00;;
73100;SDS011;61288;53.446;-2.266;2023-08-06T02:19:07;12.13;;;4.07;;
73100;SDS011;61288;53.446;-2.266;2023-08-06T02:21:33;11.77;;;3.67;;
73100;SDS011;61288;53.446;-2.266;2023-08-06T02:23:59;11.98;;;4.18;;
73100;SDS011;61288;53.446;-2.266;2023-08-06T02:26:24;12.20;;;4.05;;
73100;SDS011;61288;53.446;-2.266;2023-08-06T02:28:49;12.27;;;3.80;;
73100;SDS011;61288;53.446;-2.266;2023-08-06T02:31:15;10.65;;;4.03;;
73100;SDS011;61288;53.446;-2.266;2023-08-06T02:33:41;11.82;;;3.92;;
73100;SDS011;61288;53.446;-2.266;2023-08-06T02:36:06;11.38;;;4.20;;
73100;SDS011;61288;53.446;-2.266;2023-08-06T02:38:33;11.10;;;3.50;;
73100;SDS011;61288;53.446;-2.266;2023-08-06T02:40:58;10.88;;;3.58;;
73100;SDS011;61288;53.446;-2.266;2023-08-06T02:43:27;12.80;;;4.20;;
73100;SDS011;61288;53.446;-2.266;2023-08-06T02:45:56;10.38;;;3.88;;
73100;SDS011;61288;53.446;-2.266;2023-08-06T02:48:22;11.68;;;3.85;;
73100;SDS011;61288;53.446;-2.266;2023-08-06T02:50:48;14.75;;;4.38;;
73100;SDS011;61288;53.446;-2.266;2023-08-06T02:53:13;11.48;;;4.25;;
73100;SDS011;61288;53.446;-2.266;2023-08-06T02:55:44;11.77;;;3.90;;
73100;SDS011;61288;53.446;-2.266;2023-08-06T02:58:13;11.95;;;3.83;;
73100;SDS011;61288;53.446;-2.266;2023-08-06T03:00:42;11.52;;;3.65;;
73100;SDS011;61288;53.446;-2.266;2023-08-06T03:03:08;10.75;;;3.92;;
73100;SDS011;61288;53.446;-2.266;2023-08-06T03:05:34;17.45;;;4.75;;
73100;SDS011;61288;53.446;-2.266;2023-08-06T03:07:59;13.05;;;3.85;;
73100;SDS011;61288;53.446;-2.266;2023-08-06T03:10:25;12.20;;;4.10;;
73100;SDS011;61288;53.446;-2.266;2023-08-06T03:12:50;13.65;;;4.53;;
73100;SDS011;61288;53.446;-2.266;2023-08-06T03:15:16;12.10;;;4.50;;
73100;SDS011;61288;53.446;-2.266;2023-08-06T03:17:41;11.15;;;3.70;;
73100;SDS011;61288;53.446;-2.266;2023-08-06T03:20:07;10.02;;;3.40;;
73100;SDS011;61288;53.446;-2.266;2023-08-06T03:22:33;11.38;;;3.80;;
73100;SDS011;61288;53.446;-2.266;2023-08-06T03:24:58;11.80;;;3.80;;
73100;SDS011;61288;53.446;-2.266;2023-08-06T03:27:24;9.10;;;3.50;;
73100;SDS011;61288;53.446;-2.266;2023-08-06T03:29:49;10.93;;;3.13;;
73100;SDS011;61288;53.446;-2.266;2023-08-06T03:32:15;10.48;;;3.83;;
73100;SDS011;61288;53.446;-2.266;2023-08-06T03:34:41;11.93;;;4.22;;
73100;SDS011;61288;53.446;-2.266;2023-08-06T03:37:06;13.45;;;4.13;;
73100;SDS011;61288;53.446;-2.266;2023-08-06T03:39:32;12.18;;;4.00;;
73100;SDS011;61288;53.446;-2.266;2023-08-06T03:41:57;10.95;;;3.92;;
73100;SDS011;61288;53.446;-2.266;2023-08-06T03:44:23;12.90;;;4.00;;
73100;SDS011;61288;53.446;-2.266;2023-08-06T03:46:48;12.48;;;4.05;;
73100;SDS011;61288;53.446;-2.266;2023-08-06T03:49:14;12.15;;;3.88;;
73100;SDS011;61288;53.446;-2.266;2023-08-06T03:51:40;11.90;;;3.63;;
73100;SDS011;61288;53.446;-2.266;2023-08-06T03:54:06;11.30;;;3.78;;
73100;SDS011;61288;53.446;-2.266;2023-08-06T03:56:32;10.88;;;3.60;;
73100;SDS011;61288;53.446;-2.266;2023-08-06T03:58:58;11.23;;;3.85;;
73100;SDS011;61288;53.446;-2.266;2023-08-06T04:01:24;8.07;;;2.90;;
73100;SDS011;61288;53.446;-2.266;2023-08-06T04:03:49;11.25;;;3.53;;
73100;SDS011;61288;53.446;-2.266;2023-08-06T04:06:15;9.32;;;3.28;;
73100;SDS011;61288;53.446;-2.266;2023-08-06T04:08:41;10.60;;;3.55;;
73100;SDS011;61288;53.446;-2.266;2023-08-06T04:11:06;11.02;;;3.85;;
73100;SDS011;61288;53.446;-2.266;2023-08-06T04:13:33;11.10;;;3.95;;
73100;SDS011;61288;53.446;-2.266;2023-08-06T04:16:02;14.18;;;4.05;;
73100;SDS011;61288;53.446;-2.266;2023-08-06T04:18:28;12.55;;;3.53;;
73100;SDS011;61288;53.446;-2.266;2023-08-06T04:20:53;12.18;;;3.80;;
73100;SDS011;61288;53.446;-2.266;2023-08-06T04:23:20;14.43;;;3.72;;
73100;SDS011;61288;53.446;-2.266;2023-08-06T04:25:46;13.85;;;4.50;;
73100;SDS011;61288;53.446;-2.266;2023-08-06T04:28:11;12.70;;;4.35;;
73100;SDS011;61288;53.446;-2.266;2023-08-06T04:30:37;14.57;;;3.97;;
73100;SDS011;61288;53.446;-2.266;2023-08-06T04:33:03;13.02;;;3.78;;
73100;SDS011;61288;53.446;-2.266;2023-08-06T04:35:28;12.13;;;4.00;;
73100;SDS011;61288;53.446;-2.266;2023-08-06T04:37:54;12.98;;;4.00;;
73100;SDS011;61288;53.446;-2.266;2023-08-06T04:40:20;10.27;;;3.60;;
73100;SDS011;61288;53.446;-2.266;2023-08-06T04:42:45;11.13;;;3.38;;
73100;SDS011;61288;53.446;-2.266;2023-08-06T04:45:10;12.82;;;4.25;;
73100;SDS011;61288;53.446;-2.266;2023-08-06T04:47:36;11.73;;;4.50;;
73100;SDS011;61288;53.446;-2.266;2023-08-06T04:50:02;14.38;;;4.30;;
73100;SDS011;61288;53.446;-2.266;2023-08-06T04:52:27;15.50;;;4.40;;
73100;SDS011;61288;53.446;-2.266;2023-08-06T04:54:53;13.15;;;3.83;;
73100;SDS011;61288;53.446;-2.266;2023-08-06T04:57:19;14.32;;;4.03;;
73100;SDS011;61288;53.446;-2.266;2023-08-06T04:59:45;13.85;;;4.45;;
73100;SDS011;61288;53.446;-2.266;2023-08-06T05:02:11;12.45;;;4.30;;
73100;SDS011;61288;53.446;-2.266;2023-08-06T05:04:36;12.35;;;4.10;;
73100;SDS011;61288;53.446;-2.266;2023-08-06T05:07:02;12.65;;;4.10;;
73100;SDS011;61288;53.446;-2.266;2023-08-06T05:09:28;12.15;;;4.05;;
73100;SDS011;61288;53.446;-2.266;2023-08-06T05:11:53;12.85;;;4.28;;
73100;SDS011;61288;53.446;-2.266;2023-08-06T05:14:19;11.52;;;4.07;;
73100;SDS011;61288;53.446;-2.266;2023-08-06T05:16:44;11.77;;;4.43;;
73100;SDS011;61288;53.446;-2.266;2023-08-06T05:19:10;12.20;;;4.20;;
73100;SDS011;61288;53.446;-2.266;2023-08-06T05:21:35;13.27;;;4.30;;
73100;SDS011;61288;53.446;-2.266;2023-08-06T05:24:00;12.30;;;4.03;;
73100;SDS011;61288;53.446;-2.266;2023-08-06T05:26:26;14.35;;;4.78;;
73100;SDS011;61288;53.446;-2.266;2023-08-06T05:28:51;12.73;;;4.30;;
73100;SDS011;61288;53.446;-2.266;2023-08-06T05:31:17;13.80;;;4.40;;
73100;SDS011;61288;53.446;-2.266;2023-08-06T05:33:42;13.35;;;4.53;;
73100;SDS011;61288;53.446;-2.266;2023-08-06T05:36:08;14.63;;;4.10;;
73100;SDS011;61288;53.446;-2.266;2023-08-06T05:38:33;12.10;;;4.22;;
73100;SDS011;61288;53.446;-2.266;2023-08-06T05:40:59;13.05;;;4.38;;
73100;SDS011;61288;53.446;-2.266;2023-08-06T05:43:24;14.23;;;4.90;;
73100;SDS011;61288;53.446;-2.266;2023-08-06T05:45:50;11.32;;;3.97;;
73100;SDS011;61288;53.446;-2.266;2023-08-06T05:48:16;11.32;;;3.80;;
73100;SDS011;61288;53.446;-2.266;2023-08-06T05:50:41;13.10;;;4.75;;
73100;SDS011;61288;53.446;-2.266;2023-08-06T05:53:07;14.27;;;4.97;;
73100;SDS011;61288;53.446;-2.266;2023-08-06T05:55:33;11.20;;;4.22;;
73100;SDS011;61288;53.446;-2.266;2023-08-06T05:57:58;11.93;;;4.47;;
73100;SDS011;61288;53.446;-2.266;2023-08-06T06:00:24;14.27;;;4.60;;
73100;SDS011;61288;53.446;-2.266;2023-08-06T06:02:49;15.63;;;4.68;;
73100;SDS011;61288;53.446;-2.266;2023-08-06T06:05:15;13.48;;;4.32;;
73100;SDS011;61288;53.446;-2.266;2023-08-06T06:07:41;11.52;;;4.10;;
73100;SDS011;61288;53.446;-2.266;2023-08-06T06:10:06;11.55;;;4.28;;
73100;SDS011;61288;53.446;-2.266;2023-08-06T06:12:32;13.73;;;4.60;;
73100;SDS011;61288;53.446;-2.266;2023-08-06T06:14:58;15.40;;;5.25;;
73100;SDS011;61288;53.446;-2.266;2023-08-06T06:17:26;11.55;;;4.13;;
73100;SDS011;61288;53.446;-2.266;2023-08-06T06:19:52;13.95;;;4.50;;
73100;SDS011;61288;53.446;-2.266;2023-08-06T06:22:17;12.35;;;4.60;;
73100;SDS011;61288;53.446;-2.266;2023-08-06T06:24:43;14.68;;;4.55;;
73100;SDS011;61288;53.446;-2.266;2023-08-06T06:27:08;12.98;;;4.68;;
73100;SDS011;61288;53.446;-2.266;2023-08-06T06:29:34;14.88;;;4.60;;
73100;SDS011;61288;53.446;-2.266;2023-08-06T06:31:59;12.77;;;4.55;;
73100;SDS011;61288;53.446;-2.266;2023-08-06T06:34:28;13.95;;;4.32;;
73100;SDS011;61288;53.446;-2.266;2023-08-06T06:36:53;11.48;;;4.45;;
73100;SDS011;61288;53.446;-2.266;2023-08-06T06:39:18;12.45;;;4.25;;
73100;SDS011;61288;53.446;-2.266;2023-08-06T06:41:44;14.13;;;4.30;;
73100;SDS011;61288;53.446;-2.266;2023-08-06T06:44:09;11.23;;;4.00;;
73100;SDS011;61288;53.446;-2.266;2023-08-06T06:46:35;13.57;;;4.22;;
73100;SDS011;61288;53.446;-2.266;2023-08-06T06:49:01;14.52;;;4.55;;
73100;SDS011;61288;53.446;-2.266;2023-08-06T06:51:26;10.85;;;4.00;;
73100;SDS011;61288;53.446;-2.266;2023-08-06T06:53:52;11.35;;;3.67;;
73100;SDS011;61288;53.446;-2.266;2023-08-06T06:56:17;12.95;;;4.07;;
73100;SDS011;61288;53.446;-2.266;2023-08-06T06:58:43;12.45;;;3.97;;
73100;SDS011;61288;53.446;-2.266;2023-08-06T07:01:08;11.45;;;4.05;;
73100;SDS011;61288;53.446;-2.266;2023-08-06T07:03:36;13.80;;;4.07;;
73100;SDS011;61288;53.446;-2.266;2023-08-06T07:06:02;13.20;;;4.53;;
73100;SDS011;61288;53.446;-2.266;2023-08-06T07:08:28;11.57;;;3.42;;
73100;SDS011;61288;53.446;-2.266;2023-08-06T07:11:04;11.95;;;3.83;;
73100;SDS011;61288;53.446;-2.266;2023-08-06T07:13:31;14.32;;;4.50;;
73100;SDS011;61288;53.446;-2.266;2023-08-06T07:15:57;13.25;;;3.90;;
73100;SDS011;61288;53.446;-2.266;2023-08-06T07:18:24;12.48;;;3.85;;
73100;SDS011;61288;53.446;-2.266;2023-08-06T07:20:50;12.90;;;4.38;;
73100;SDS011;61288;53.446;-2.266;2023-08-06T07:23:17;13.85;;;4.38;;
73100;SDS011;61288;53.446;-2.266;2023-08-06T07:25:43;12.30;;;4.03;;
73100;SDS011;61288;53.446;-2.266;2023-08-06T07:28:09;12.98;;;3.80;;
73100;SDS011;61288;53.446;-2.266;2023-08-06T07:30:38;9.50;;;3.38;;
73100;SDS011;61288;53.446;-2.266;2023-08-06T07:33:04;10.00;;;3.53;;
73100;SDS011;61288;53.446;-2.266;2023-08-06T07:35:29;10.00;;;3.42;;
73100;SDS011;61288;53.446;-2.266;2023-08-06T07:37:55;12.65;;;3.90;;
73100;SDS011;61288;53.446;-2.266;2023-08-06T07:40:21;10.35;;;3.33;;
73100;SDS011;61288;53.446;-2.266;2023-08-06T07:42:46;11.20;;;3.65;;
73100;SDS011;61288;53.446;-2.266;2023-08-06T07:45:12;11.88;;;3.50;;
73100;SDS011;61288;53.446;-2.266;2023-08-06T07:47:37;11.95;;;3.22;;
73100;SDS011;61288;53.446;-2.266;2023-08-06T07:50:03;12.70;;;3.78;;
73100;SDS011;61288;53.446;-2.266;2023-08-06T07:52:29;12.05;;;3.70;;
73100;SDS011;61288;53.446;-2.266;2023-08-06T07:54:54;11.75;;;3.78;;
73100;SDS011;61288;53.446;-2.266;2023-08-06T07:57:19;11.38;;;3.50;;
73100;SDS011;61288;53.446;-2.266;2023-08-06T07:59:45;10.13;;;3.33;;
73100;SDS011;61288;53.446;-2.266;2023-08-06T08:02:10;10.38;;;3.25;;
73100;SDS011;61288;53.446;-2.266;2023-08-06T08:04:36;9.95;;;3.17;;
73100;SDS011;61288;53.446;-2.266;2023-08-06T08:07:01;9.55;;;3.25;;
73100;SDS011;61288;53.446;-2.266;2023-08-06T08:09:27;10.48;;;3.40;;
73100;SDS011;61288;53.446;-2.266;2023-08-06T08:11:53;10.63;;;3.10;;
73100;SDS011;61288;53.446;-2.266;2023-08-06T08:14:18;7.85;;;2.83;;
73100;SDS011;61288;53.446;-2.266;2023-08-06T08:16:44;8.02;;;3.22;;
73100;SDS011;61288;53.446;-2.266;2023-08-06T08:19:09;8.80;;;2.80;;
73100;SDS011;61288;53.446;-2.266;2023-08-06T08:21:35;9.50;;;2.85;;
73100;SDS011;61288;53.446;-2.266;2023-08-06T08:24:00;10.32;;;2.75;;
73100;SDS011;61288;53.446;-2.266;2023-08-06T08:26:26;8.15;;;2.80;;
73100;SDS011;61288;53.446;-2.266;2023-08-06T08:28:53;8.75;;;2.53;;
73100;SDS011;61288;53.446;-2.266;2023-08-06T08:31:19;9.68;;;2.80;;
73100;SDS011;61288;53.446;-2.266;2023-08-06T08:33:44;10.57;;;3.00;;
73100;SDS011;61288;53.446;-2.266;2023-08-06T08:36:10;7.07;;;2.42;;
73100;SDS011;61288;53.446;-2.266;2023-08-06T08:38:35;10.25;;;2.90;;
73100;SDS011;61288;53.446;-2.266;2023-08-06T08:41:01;7.78;;;2.80;;
73100;SDS011;61288;53.446;-2.266;2023-08-06T08:43:27;8.35;;;2.70;;
73100;SDS011;61288;53.446;-2.266;2023-08-06T08:45:54;9.55;;;2.42;;
73100;SDS011;61288;53.446;-2.266;2023-08-06T08:48:23;9.75;;;2.33;;
73100;SDS011;61288;53.446;-2.266;2023-08-06T08:50:50;8.20;;;2.70;;
73100;SDS011;61288;53.446;-2.266;2023-08-06T08:53:16;8.32;;;2.85;;
73100;SDS011;61288;53.446;-2.266;2023-08-06T08:55:43;7.05;;;2.40;;
73100;SDS011;61288;53.446;-2.266;2023-08-06T08:58:11;6.47;;;2.30;;
73100;SDS011;61288;53.446;-2.266;2023-08-06T09:00:37;6.80;;;2.30;;
73100;SDS011;61288;53.446;-2.266;2023-08-06T09:03:06;5.90;;;1.98;;
73100;SDS011;61288;53.446;-2.266;2023-08-06T09:05:32;5.47;;;2.15;;
73100;SDS011;61288;53.446;-2.266;2023-08-06T09:08:01;6.80;;;2.22;;
73100;SDS011;61288;53.446;-2.266;2023-08-06T09:12:56;7.20;;;2.13;;
73100;SDS011;61288;53.446;-2.266;2023-08-06T09:15:25;7.15;;;1.95;;
73100;SDS011;61288;53.446;-2.266;2023-08-06T09:18:12;7.28;;;2.10;;
73100;SDS011;61288;53.446;-2.266;2023-08-06T09:20:38;6.68;;;2.00;;
73100;SDS011;61288;53.446;-2.266;2023-08-06T09:23:09;7.53;;;2.13;;
73100;SDS011;61288;53.446;-2.266;2023-08-06T09:25:37;6.65;;;2.00;;
73100;SDS011;61288;53.446;-2.266;2023-08-06T09:28:04;6.40;;;2.15;;
73100;SDS011;61288;53.446;-2.266;2023-08-06T09:30:36;6.30;;;2.03;;
73100;SDS011;61288;53.446;-2.266;2023-08-06T09:33:02;7.93;;;2.28;;
73100;SDS011;61288;53.446;-2.266;2023-08-06T09:35:28;6.72;;;2.00;;
73100;SDS011;61288;53.446;-2.266;2023-08-06T09:37:55;8.75;;;2.38;;
73100;SDS011;61288;53.446;-2.266;2023-08-06T09:40:32;7.03;;;2.33;;
73100;SDS011;61288;53.446;-2.266;2023-08-06T09:42:58;5.25;;;1.80;;
73100;SDS011;61288;53.446;-2.266;2023-08-06T09:45:37;4.90;;;2.00;;
73100;SDS011;61288;53.446;-2.266;2023-08-06T09:48:03;5.97;;;1.85;;
73100;SDS011;61288;53.446;-2.266;2023-08-06T09:50:34;6.35;;;2.05;;
73100;SDS011;61288;53.446;-2.266;2023-08-06T09:53:02;4.88;;;1.75;;
73100;SDS011;61288;53.446;-2.266;2023-08-06T09:57:58;5.70;;;1.70;;
73100;SDS011;61288;53.446;-2.266;2023-08-06T10:00:25;6.03;;;2.00;;
73100;SDS011;61288;53.446;-2.266;2023-08-06T10:02:53;4.72;;;1.85;;
73100;SDS011;61288;53.446;-2.266;2023-08-06T10:05:22;5.80;;;1.60;;
73100;SDS011;61288;53.446;-2.266;2023-08-06T10:07:48;6.50;;;2.10;;
73100;SDS011;61288;53.446;-2.266;2023-08-06T10:10:16;7.35;;;2.20;;
73100;SDS011;61288;53.446;-2.266;2023-08-06T10:12:46;7.32;;;1.83;;
73100;SDS011;61288;53.446;-2.266;2023-08-06T10:15:20;7.57;;;2.05;;
73100;SDS011;61288;53.446;-2.266;2023-08-06T10:17:50;7.13;;;2.35;;
73100;SDS011;61288;53.446;-2.266;2023-08-06T10:20:19;6.28;;;1.92;;
73100;SDS011;61288;53.446;-2.266;2023-08-06T10:23:03;5.10;;;1.70;;
73100;SDS011;61288;53.446;-2.266;2023-08-06T10:25:31;6.30;;;1.92;;
73100;SDS011;61288;53.446;-2.266;2023-08-06T10:27:58;5.05;;;2.05;;
73100;SDS011;61288;53.446;-2.266;2023-08-06T10:30:25;6.63;;;1.75;;
73100;SDS011;61288;53.446;-2.266;2023-08-06T10:32:59;6.40;;;2.03;;
73100;SDS011;61288;53.446;-2.266;2023-08-06T10:35:36;6.63;;;2.20;;
73100;SDS011;61288;53.446;-2.266;2023-08-06T10:38:10;4.55;;;1.75;;
73100;SDS011;61288;53.446;-2.266;2023-08-06T10:40:50;7.70;;;2.03;;
73100;SDS011;61288;53.446;-2.266;2023-08-06T10:43:25;7.03;;;2.00;;
73100;SDS011;61288;53.446;-2.266;2023-08-06T10:45:53;7.55;;;2.20;;
73100;SDS011;61288;53.446;-2.266;2023-08-06T10:48:38;6.90;;;2.20;;
73100;SDS011;61288;53.446;-2.266;2023-08-06T10:51:08;6.32;;;2.00;;
73100;SDS011;61288;53.446;-2.266;2023-08-06T10:53:35;7.07;;;1.98;;
73100;SDS011;61288;53.446;-2.266;2023-08-06T10:56:01;6.75;;;2.10;;
73100;SDS011;61288;53.446;-2.266;2023-08-06T10:58:37;5.60;;;1.67;;
73100;SDS011;61288;53.446;-2.266;2023-08-06T11:01:02;4.13;;;1.70;;
73100;SDS011;61288;53.446;-2.266;2023-08-06T11:03:28;6.20;;;2.20;;
73100;SDS011;61288;53.446;-2.266;2023-08-06T11:05:54;5.30;;;1.70;;
73100;SDS011;61288;53.446;-2.266;2023-08-06T11:08:26;7.20;;;1.92;;
73100;SDS011;61288;53.446;-2.266;2023-08-06T11:10:53;6.72;;;1.98;;
73100;SDS011;61288;53.446;-2.266;2023-08-06T11:13:22;7.60;;;2.13;;
73100;SDS011;61288;53.446;-2.266;2023-08-06T11:15:47;4.93;;;1.75;;
73100;SDS011;61288;53.446;-2.266;2023-08-06T11:18:13;6.30;;;2.22;;
73100;SDS011;61288;53.446;-2.266;2023-08-06T11:20:39;5.97;;;2.00;;
73100;SDS011;61288;53.446;-2.266;2023-08-06T11:23:04;5.38;;;2.15;;
73100;SDS011;61288;53.446;-2.266;2023-08-06T11:25:31;7.05;;;2.10;;
73100;SDS011;61288;53.446;-2.266;2023-08-06T11:28:01;6.82;;;2.03;;
73100;SDS011;61288;53.446;-2.266;2023-08-06T11:30:27;6.38;;;1.90;;
73100;SDS011;61288;53.446;-2.266;2023-08-06T11:32:52;5.95;;;1.90;;
73100;SDS011;61288;53.446;-2.266;2023-08-06T11:35:18;7.03;;;2.00;;
73100;SDS011;61288;53.446;-2.266;2023-08-06T11:37:44;6.97;;;1.90;;
73100;SDS011;61288;53.446;-2.266;2023-08-06T11:40:11;8.23;;;1.90;;
73100;SDS011;61288;53.446;-2.266;2023-08-06T11:42:37;5.88;;;2.17;;
73100;SDS011;61288;53.446;-2.266;2023-08-06T11:45:03;6.22;;;2.00;;
73100;SDS011;61288;53.446;-2.266;2023-08-06T11:47:29;5.35;;;1.60;;
73100;SDS011;61288;53.446;-2.266;2023-08-06T11:49:55;5.72;;;1.80;;
73100;SDS011;61288;53.446;-2.266;2023-08-06T11:52:25;6.88;;;1.70;;
73100;SDS011;61288;53.446;-2.266;2023-08-06T11:55:04;5.50;;;1.70;;
73100;SDS011;61288;53.446;-2.266;2023-08-06T11:57:32;6.43;;;1.98;;
73100;SDS011;61288;53.446;-2.266;2023-08-06T12:00:06;5.15;;;1.80;;
73100;SDS011;61288;53.446;-2.266;2023-08-06T12:02:34;5.10;;;1.52;;
73100;SDS011;61288;53.446;-2.266;2023-08-06T12:05:09;5.65;;;1.60;;
73100;SDS011;61288;53.446;-2.266;2023-08-06T12:07:43;4.97;;;1.60;;
73100;SDS011;61288;53.446;-2.266;2023-08-06T12:10:11;4.63;;;1.60;;
73100;SDS011;61288;53.446;-2.266;2023-08-06T12:12:37;5.20;;;1.58;;
73100;SDS011;61288;53.446;-2.266;2023-08-06T12:15:04;6.72;;;1.70;;
73100;SDS011;61288;53.446;-2.266;2023-08-06T12:17:31;4.68;;;1.88;;
73100;SDS011;61288;53.446;-2.266;2023-08-06T12:19:57;5.72;;;1.60;;
73100;SDS011;61288;53.446;-2.266;2023-08-06T12:22:22;5.70;;;1.52;;
73100;SDS011;61288;53.446;-2.266;2023-08-06T12:24:48;5.70;;;1.70;;
73100;SDS011;61288;53.446;-2.266;2023-08-06T12:27:14;5.18;;;1.48;;
73100;SDS011;61288;53.446;-2.266;2023-08-06T12:29:44;4.18;;;1.48;;
73100;SDS011;61288;53.446;-2.266;2023-08-06T12:32:13;4.88;;;1.60;;
73100;SDS011;61288;53.446;-2.266;2023-08-06T12:34:39;4.75;;;1.58;;
73100;SDS011;61288;53.446;-2.266;2023-08-06T12:37:06;6.32;;;1.70;;
73100;SDS011;61288;53.446;-2.266;2023-08-06T12:39:35;4.25;;;1.40;;
73100;SDS011;61288;53.446;-2.266;2023-08-06T12:42:04;4.25;;;1.60;;
73100;SDS011;61288;53.446;-2.266;2023-08-06T12:44:31;3.88;;;1.40;;
73100;SDS011;61288;53.446;-2.266;2023-08-06T12:46:57;5.13;;;1.70;;
73100;SDS011;61288;53.446;-2.266;2023-08-06T12:49:24;4.75;;;1.67;;
73100;SDS011;61288;53.446;-2.266;2023-08-06T12:51:51;4.20;;;1.50;;
73100;SDS011;61288;53.446;-2.266;2023-08-06T12:54:17;6.25;;;1.88;;
73100;SDS011;61288;53.446;-2.266;2023-08-06T12:56:44;4.32;;;1.55;;
73100;SDS011;61288;53.446;-2.266;2023-08-06T12:59:11;4.63;;;1.63;;
73100;SDS011;61288;53.446;-2.266;2023-08-06T13:01:37;4.22;;;1.52;;
73100;SDS011;61288;53.446;-2.266;2023-08-06T13:04:04;6.25;;;1.42;;
73100;SDS011;61288;53.446;-2.266;2023-08-06T13:06:30;3.65;;;1.40;;
73100;SDS011;61288;53.446;-2.266;2023-08-06T13:09:00;3.85;;;1.60;;
73100;SDS011;61288;53.446;-2.266;2023-08-06T13:11:26;5.07;;;1.50;;
73100;SDS011;61288;53.446;-2.266;2023-08-06T13:13:51;3.45;;;1.40;;
73100;SDS011;61288;53.446;-2.266;2023-08-06T13:16:17;5.78;;;1.70;;
73100;SDS011;61288;53.446;-2.266;2023-08-06T13:18:42;2.42;;;1.13;;
73100;SDS011;61288;53.446;-2.266;2023-08-06T13:21:08;4.53;;;1.30;;
73100;SDS011;61288;53.446;-2.266;2023-08-06T13:23:34;4.43;;;1.50;;
73100;SDS011;61288;53.446;-2.266;2023-08-06T13:26:00;3.72;;;1.50;;
73100;SDS011;61288;53.446;-2.266;2023-08-06T13:28:25;4.18;;;1.45;;
73100;SDS011;61288;53.446;-2.266;2023-08-06T13:30:51;5.55;;;1.40;;
73100;SDS011;61288;53.446;-2.266;2023-08-06T13:33:17;4.85;;;1.73;;
73100;SDS011;61288;53.446;-2.266;2023-08-06T13:35:42;7.50;;;1.70;;
73100;SDS011;61288;53.446;-2.266;2023-08-06T13:38:08;7.75;;;2.25;;
73100;SDS011;61288;53.446;-2.266;2023-08-06T13:40:34;5.97;;;1.80;;
73100;SDS011;61288;53.446;-2.266;2023-08-06T13:43:00;5.90;;;1.83;;
73100;SDS011;61288;53.446;-2.266;2023-08-06T13:45:25;3.63;;;1.40;;
73100;SDS011;61288;53.446;-2.266;2023-08-06T13:47:51;5.18;;;1.58;;
73100;SDS011;61288;53.446;-2.266;2023-08-06T13:50:17;4.47;;;1.52;;
73100;SDS011;61288;53.446;-2.266;2023-08-06T13:52:42;6.13;;;1.52;;
73100;SDS011;61288;53.446;-2.266;2023-08-06T13:55:08;6.38;;;1.77;;
73100;SDS011;61288;53.446;-2.266;2023-08-06T13:57:34;5.35;;;1.58;;
73100;SDS011;61288;53.446;-2.266;2023-08-06T14:00:00;6.10;;;1.50;;
73100;SDS011;61288;53.446;-2.266;2023-08-06T14:02:25;4.78;;;1.42;;
73100;SDS011;61288;53.446;-2.266;2023-08-06T14:04:54;6.18;;;1.52;;
73100;SDS011;61288;53.446;-2.266;2023-08-06T14:07:20;3.08;;;1.30;;
73100;SDS011;61288;53.446;-2.266;2023-08-06T14:09:46;4.65;;;1.73;;
73100;SDS011;61288;53.446;-2.266;2023-08-06T14:12:12;4.60;;;1.75;;
73100;SDS011;61288;53.446;-2.266;2023-08-06T14:14:39;5.38;;;1.90;;
73100;SDS011;61288;53.446;-2.266;2023-08-06T14:17:05;5.60;;;1.80;;
73100;SDS011;61288;53.446;-2.266;2023-08-06T14:19:31;5.82;;;1.60;;
73100;SDS011;61288;53.446;-2.266;2023-08-06T14:21:57;4.53;;;1.50;;
73100;SDS011;61288;53.446;-2.266;2023-08-06T14:24:23;2.83;;;1.30;;
73100;SDS011;61288;53.446;-2.266;2023-08-06T14:26:48;4.25;;;1.50;;
73100;SDS011;61288;53.446;-2.266;2023-08-06T14:29:14;4.82;;;1.67;;
73100;SDS011;61288;53.446;-2.266;2023-08-06T14:31:40;4.38;;;1.63;;
73100;SDS011;61288;53.446;-2.266;2023-08-06T14:34:05;5.05;;;1.52;;
73100;SDS011;61288;53.446;-2.266;2023-08-06T14:36:31;6.68;;;1.70;;
73100;SDS011;61288;53.446;-2.266;2023-08-06T14:38:58;3.10;;;1.33;;
73100;SDS011;61288;53.446;-2.266;2023-08-06T14:41:24;4.25;;;1.58;;